Time;durP1;ratioP1;P1;durP2;ratioP2;P2;SDS_P1;SDS_P2;PMS_P1;PMS_P2;Temp;Humidity;BMP_temperature;BMP_pressure;BME280_temperature;BME280_humidity;BME280_pressure;Samples;Min_cycle;Max_cycle;Signal;HPM_P1;HPM_P2
2021/10/13 00:01:42;;;;;;;15.20;8.70;;;;;;;6.18;79.81;96280.57;115463;1198;28094;-86
2021/10/13 00:04:10;;;;;;;13.10;8.50;;;;;;;6.20;79.70;96279.40;115546;1198;24893;-86
2021/10/13 00:06:38;;;;;;;11.50;6.30;;;;;;;6.21;79.96;96276.61;115524;1198;27202;-87
2021/10/13 00:09:06;;;;;;;9.40;6.00;;;;;;;6.21;79.99;96281.61;115418;1199;32521;-86
2021/10/13 00:11:35;;;;;;;9.80;5.60;;;;;;;6.23;79.80;96278.20;115520;1198;28049;-86
2021/10/13 00:14:03;;;;;;;16.20;9.00;;;;;;;6.25;79.97;96272.73;115528;1198;37890;-87
2021/10/13 00:16:32;;;;;;;16.90;10.20;;;;;;;6.20;79.95;96276.55;115473;1199;26465;-87
2021/10/13 00:19:00;;;;;;;20.30;11.00;;;;;;;6.19;79.90;96276.06;115419;1199;27579;-87
2021/10/13 00:21:28;;;;;;;19.10;11.80;;;;;;;6.24;80.16;96275.35;115402;1184;27719;-86
2021/10/13 00:23:56;;;;;;;15.80;11.50;;;;;;;6.32;80.40;96277.90;115539;1198;30786;-87
2021/10/13 00:26:24;;;;;;;17.70;11.80;;;;;;;6.38;80.40;96282.02;115545;1193;26234;-87
2021/10/13 00:28:52;;;;;;;20.40;11.20;;;;;;;6.41;80.65;96277.92;115500;1199;29635;-84
2021/10/13 00:31:20;;;;;;;16.30;9.90;;;;;;;6.42;80.53;96281.72;115593;1198;45194;-87
2021/10/13 00:33:48;;;;;;;17.30;10.00;;;;;;;6.41;80.65;96284.88;115278;1200;28564;-87
2021/10/13 00:36:16;;;;;;;14.90;8.80;;;;;;;6.42;80.79;96284.46;115200;1200;29936;-87
2021/10/13 00:38:44;;;;;;;12.10;7.30;;;;;;;6.41;80.75;96285.98;115410;1199;27607;-87
2021/10/13 00:41:12;;;;;;;10.60;6.20;;;;;;;6.42;80.62;96282.30;115449;1199;26938;-87
2021/10/13 00:43:42;;;;;;;6.60;4.30;;;;;;;6.42;80.90;96286.03;115403;1199;28334;-87
2021/10/13 00:46:10;;;;;;;7.30;5.20;;;;;;;6.37;80.68;96286.82;115584;1199;26650;-88
2021/10/13 00:48:38;;;;;;;10.70;5.70;;;;;;;6.35;80.64;96287.98;115536;1198;28407;-87
2021/10/13 00:51:06;;;;;;;7.10;4.60;;;;;;;6.35;80.86;96289.08;115537;1198;26085;-87
2021/10/13 00:53:35;;;;;;;6.60;3.90;;;;;;;6.31;80.88;96286.26;115185;1186;28050;-87
2021/10/13 00:56:03;;;;;;;5.80;3.80;;;;;;;6.26;81.17;96285.61;115186;1199;27765;-87
2021/10/13 00:58:31;;;;;;;8.10;4.80;;;;;;;6.20;81.13;96286.13;115215;1200;28817;-87
2021/10/13 01:01:02;;;;;;;6.10;3.00;;;;;;;6.20;81.03;96288.77;115414;1199;41569;-88
2021/10/13 01:03:37;;;;;;;5.50;2.80;;;;;;;6.20;81.14;96287.30;115153;1200;32820;-88
2021/10/13 01:06:14;;;;;;;5.80;3.20;;;;;;;6.13;80.81;96289.58;115181;1193;28101;-86
2021/10/13 01:08:55;;;;;;;4.50;2.60;;;;;;;6.07;80.73;96287.91;115395;1199;34857;-88
2021/10/13 01:11:37;;;;;;;4.80;2.40;;;;;;;6.03;80.84;96288.46;115462;1199;39214;-87
2021/10/13 01:14:20;;;;;;;2.80;2.00;;;;;;;5.95;80.96;96297.08;115411;1199;25680;-87
2021/10/13 01:16:54;;;;;;;3.10;2.20;;;;;;;5.91;81.31;96301.00;115112;1200;28480;-87
2021/10/13 01:19:40;;;;;;;3.20;2.20;;;;;;;5.84;81.25;96300.93;115392;1199;29189;-87
2021/10/13 01:22:27;;;;;;;2.80;1.90;;;;;;;5.74;81.43;96305.66;115339;1193;27606;-87
2021/10/13 01:25:04;;;;;;;2.80;2.20;;;;;;;5.61;81.48;96312.32;115408;1199;27864;-88
2021/10/13 01:27:52;;;;;;;1.60;1.40;;;;;;;5.57;81.69;96312.02;115478;1199;28532;-88
2021/10/13 01:30:23;;;;;;;4.30;1.40;;;;;;;5.55;81.63;96312.28;115443;1199;31686;-88
2021/10/13 01:32:59;;;;;;;3.30;1.70;;;;;;;5.50;81.66;96316.77;115300;1200;31470;-89
2021/10/13 01:35:31;;;;;;;2.60;1.60;;;;;;;5.44;81.95;96322.66;115374;1184;27883;-89
2021/10/13 01:38:03;;;;;;;1.40;1.00;;;;;;;5.38;81.94;96328.26;115400;1198;28679;-88
2021/10/13 01:40:34;;;;;;;2.90;1.40;;;;;;;5.33;82.02;96330.10;115534;1198;29008;-88
2021/10/13 01:43:05;;;;;;;1.70;1.20;;;;;;;5.26;81.93;96331.30;115311;1192;28099;-89
2021/10/13 01:45:35;;;;;;;1.50;1.00;;;;;;;5.23;81.99;96330.09;115244;1199;28024;-89
2021/10/13 01:48:05;;;;;;;3.30;1.60;;;;;;;5.21;82.10;96329.95;115252;1199;27800;-89
2021/10/13 01:50:34;;;;;;;1.40;1.30;;;;;;;5.19;82.37;96333.60;115401;1199;28093;-89
2021/10/13 01:53:04;;;;;;;1.50;1.10;;;;;;;5.19;82.57;96338.48;115482;1198;27481;-89
2021/10/13 01:55:33;;;;;;;1.40;1.10;;;;;;;5.20;82.68;96343.71;115524;1198;26069;-89
2021/10/13 01:58:04;;;;;;;2.30;1.50;;;;;;;5.20;82.76;96340.34;115473;1199;33712;-89
2021/10/13 02:00:33;;;;;;;3.30;1.30;;;;;;;5.23;82.65;96337.49;115502;1198;26784;-88
2021/10/13 02:03:04;;;;;;;2.40;1.40;;;;;;;5.24;82.29;96331.93;115414;1199;27453;-89
2021/10/13 02:05:34;;;;;;;1.60;1.20;;;;;;;5.26;82.39;96333.20;115470;1198;26785;-89
2021/10/13 02:08:05;;;;;;;1.80;1.30;;;;;;;5.29;82.58;96330.48;115531;1199;30227;-89
2021/10/13 02:10:34;;;;;;;1.70;1.20;;;;;;;5.31;82.79;96328.98;115466;1192;29544;-89
2021/10/13 02:13:05;;;;;;;1.70;0.90;;;;;;;5.33;82.85;96333.73;115479;1199;33622;-90
2021/10/13 02:15:34;;;;;;;1.20;1.10;;;;;;;5.36;82.74;96336.55;115404;1194;30059;-90
2021/10/13 02:18:03;;;;;;;1.40;1.10;;;;;;;5.38;82.64;96335.14;115405;1198;28004;-90
2021/10/13 02:20:32;;;;;;;1.10;0.90;;;;;;;5.40;82.67;96340.10;115348;1199;29533;-90
2021/10/13 02:23:02;;;;;;;1.80;1.10;;;;;;;5.46;82.59;96346.54;115348;1199;30596;-90
2021/10/13 02:25:37;;;;;;;1.70;1.20;;;;;;;5.52;82.55;96346.02;115362;1199;29774;-90
2021/10/13 02:28:12;;;;;;;2.20;1.60;;;;;;;5.53;82.66;96344.66;115355;1198;29349;-89
2021/10/13 02:30:41;;;;;;;2.50;1.40;;;;;;;5.55;82.64;96347.89;115376;1199;28126;-90
2021/10/13 02:33:09;;;;;;;2.10;1.30;;;;;;;5.56;82.66;96349.79;115421;1193;30715;-90
2021/10/13 02:35:37;;;;;;;1.20;1.10;;;;;;;5.54;82.79;96349.77;115417;1199;29999;-90
2021/10/13 02:38:06;;;;;;;4.20;1.40;;;;;;;5.48;82.89;96347.93;115278;1199;27870;-89
2021/10/13 02:40:34;;;;;;;2.00;1.50;;;;;;;5.40;82.90;96347.77;115368;1199;31755;-90
2021/10/13 02:43:04;;;;;;;2.10;1.50;;;;;;;5.35;82.93;96349.84;115294;1198;34020;-89
2021/10/13 02:45:37;;;;;;;3.30;1.60;;;;;;;5.30;83.01;96350.21;115399;1199;28572;-90
2021/10/13 02:48:12;;;;;;;2.30;1.40;;;;;;;5.23;83.25;96355.93;115370;1199;30499;-89
2021/10/13 02:50:47;;;;;;;1.50;1.20;;;;;;;5.19;83.23;96361.35;115350;1193;29547;-89
2021/10/13 02:53:26;;;;;;;2.40;1.20;;;;;;;5.19;83.51;96363.14;115346;1199;30042;-88
2021/10/13 02:55:58;;;;;;;3.20;2.00;;;;;;;5.22;83.55;96370.61;115337;1193;29827;-89
2021/10/13 02:58:31;;;;;;;1.90;1.70;;;;;;;5.23;83.80;96372.97;115404;1199;30809;-89
2021/10/13 03:01:03;;;;;;;2.00;1.30;;;;;;;5.23;83.98;96375.77;115449;1198;30187;-89
2021/10/13 03:03:35;;;;;;;2.20;1.50;;;;;;;5.24;83.94;96376.61;115088;1200;30566;-88
2021/10/13 03:06:06;;;;;;;2.30;1.90;;;;;;;5.26;84.04;96376.73;115548;1198;26997;-89
2021/10/13 03:08:38;;;;;;;1.80;1.50;;;;;;;5.31;84.06;96377.23;115438;1199;26395;-89
2021/10/13 03:11:07;;;;;;;3.50;2.10;;;;;;;5.38;83.97;96384.66;115299;1199;28949;-90
2021/10/13 03:13:39;;;;;;;3.20;1.80;;;;;;;5.44;84.17;96385.80;115366;1199;29540;-89
2021/10/13 03:16:09;;;;;;;4.10;2.60;;;;;;;5.47;83.82;96384.45;115212;1199;30938;-89
2021/10/13 03:18:41;;;;;;;4.60;2.00;;;;;;;5.47;83.71;96386.14;115345;1193;28217;-89
2021/10/13 03:21:11;;;;;;;3.80;2.30;;;;;;;5.50;83.64;96392.77;115392;1199;27836;-89
2021/10/13 03:23:39;;;;;;;3.20;1.90;;;;;;;5.55;83.82;96396.36;115069;1199;30719;-89
2021/10/13 03:26:08;;;;;;;2.80;2.20;;;;;;;5.60;84.12;96395.93;115321;1199;28996;-89
2021/10/13 03:28:39;;;;;;;3.20;1.90;;;;;;;5.62;83.87;96403.63;115361;1199;41461;-89
2021/10/13 03:31:08;;;;;;;4.50;2.30;;;;;;;5.56;83.69;96407.10;115224;1199;31370;-89
2021/10/13 03:33:36;;;;;;;3.80;2.70;;;;;;;5.48;83.73;96407.98;115472;1199;28754;-89
2021/10/13 03:36:06;;;;;;;3.50;2.60;;;;;;;5.43;83.81;96410.14;115140;1200;28607;-90
2021/10/13 03:38:34;;;;;;;5.20;2.50;;;;;;;5.33;83.64;96411.91;115447;1198;29180;-90
2021/10/13 03:41:02;;;;;;;3.80;2.50;;;;;;;5.24;83.38;96411.30;115554;1198;27526;-89
2021/10/13 03:43:30;;;;;;;4.50;2.90;;;;;;;5.17;83.71;96410.01;115498;1198;31449;-90
2021/10/13 03:45:58;;;;;;;4.70;3.30;;;;;;;5.14;84.10;96409.66;115371;1199;28769;-91
2021/10/13 03:48:30;;;;;;;5.00;3.10;;;;;;;5.14;84.31;96413.30;115192;1200;28547;-89
2021/10/13 03:50:58;;;;;;;4.30;2.80;;;;;;;5.14;84.49;96416.14;115362;1199;27980;-90
2021/10/13 03:53:26;;;;;;;7.00;2.60;;;;;;;5.14;84.65;96412.93;115390;1199;39692;-91
2021/10/13 03:55:54;;;;;;;3.50;2.50;;;;;;;5.18;84.74;96420.27;115339;1199;33262;-90
2021/10/13 03:58:22;;;;;;;4.30;2.70;;;;;;;5.23;84.65;96419.27;115254;1199;31107;-90
2021/10/13 04:00:51;;;;;;;4.80;3.30;;;;;;;5.25;84.66;96423.77;115482;1199;34968;-91
2021/10/13 04:03:19;;;;;;;4.70;2.90;;;;;;;5.24;84.50;96424.97;115410;1199;37585;-90
2021/10/13 04:05:48;;;;;;;5.00;3.10;;;;;;;5.23;84.41;96422.33;115377;1193;30157;-89
2021/10/13 04:08:16;;;;;;;5.80;2.60;;;;;;;5.21;84.47;96427.73;115357;1199;29306;-90
2021/10/13 04:10:44;;;;;;;7.20;3.10;;;;;;;5.20;84.54;96433.20;115192;1199;34599;-90
2021/10/13 04:13:12;;;;;;;4.30;3.10;;;;;;;5.17;84.54;96434.87;115354;1199;29268;-89
2021/10/13 04:15:40;;;;;;;3.50;2.30;;;;;;;5.15;84.61;96434.74;115361;1199;30599;-90
2021/10/13 04:18:09;;;;;;;3.30;2.40;;;;;;;5.12;84.54;96436.09;115377;1199;29222;-91
2021/10/13 04:20:38;;;;;;;4.70;2.30;;;;;;;5.11;84.35;96435.81;115328;1199;30430;-90
2021/10/13 04:23:07;;;;;;;3.00;2.00;;;;;;;5.10;84.29;96438.86;115471;1198;31298;-89
2021/10/13 04:25:35;;;;;;;6.30;3.00;;;;;;;5.10;84.44;96440.38;115189;1199;31027;-89
2021/10/13 04:28:03;;;;;;;4.00;2.40;;;;;;;5.06;84.38;96442.86;115160;1200;31018;-89
2021/10/13 04:30:32;;;;;;;2.50;1.70;;;;;;;5.02;84.30;96445.70;115399;1199;30222;-89
2021/10/13 04:33:00;;;;;;;3.10;1.40;;;;;;;4.99;84.19;96443.95;115400;1198;28395;-89
2021/10/13 04:35:28;;;;;;;4.60;2.00;;;;;;;4.97;84.39;96451.73;115516;1199;26788;-89
2021/10/13 04:37:56;;;;;;;5.50;1.50;;;;;;;4.95;84.48;96450.37;115400;1199;27735;-90
2021/10/13 04:40:24;;;;;;;2.90;1.70;;;;;;;4.96;84.61;96451.79;115464;1199;28491;-90
2021/10/13 04:42:52;;;;;;;2.70;1.90;;;;;;;4.97;84.46;96449.53;115464;1199;29637;-90
2021/10/13 04:45:20;;;;;;;2.90;1.50;;;;;;;4.94;84.41;96455.40;115396;1199;39281;-89
2021/10/13 04:47:49;;;;;;;2.10;1.70;;;;;;;4.93;84.60;96456.33;115494;1199;28445;-90
2021/10/13 04:50:17;;;;;;;2.90;1.30;;;;;;;4.93;84.60;96455.06;115491;1198;27368;-90
2021/10/13 04:52:45;;;;;;;4.40;2.20;;;;;;;4.96;84.60;96458.94;115381;1199;30479;-90
2021/10/13 04:55:13;;;;;;;3.90;2.60;;;;;;;4.93;84.59;96456.69;115430;1199;28104;-90
2021/10/13 04:57:41;;;;;;;3.70;2.40;;;;;;;4.91;84.73;96457.07;115378;1199;28086;-90
2021/10/13 05:00:11;;;;;;;3.00;2.30;;;;;;;4.86;84.96;96458.08;115359;1199;29808;-90
2021/10/13 05:02:40;;;;;;;3.10;2.20;;;;;;;4.84;84.97;96468.09;115308;1199;28687;-90
2021/10/13 05:05:08;;;;;;;3.90;2.30;;;;;;;4.80;85.12;96465.98;115374;1199;34232;-90
2021/10/13 05:07:37;;;;;;;5.30;3.40;;;;;;;4.75;85.14;96468.55;115185;1199;34327;-90
2021/10/13 05:10:06;;;;;;;6.10;3.50;;;;;;;4.69;85.18;96472.48;115365;1192;29177;-90
2021/10/13 05:12:34;;;;;;;4.30;3.30;;;;;;;4.64;85.26;96476.14;115414;1198;29868;-90
2021/10/13 05:15:03;;;;;;;3.50;2.80;;;;;;;4.62;85.13;96482.66;115392;1199;31962;-91
2021/10/13 05:17:31;;;;;;;4.80;3.10;;;;;;;4.61;85.19;96485.86;115516;1198;43038;-90
2021/10/13 05:19:59;;;;;;;3.50;2.70;;;;;;;4.61;85.00;96495.37;115332;1199;30163;-90
2021/10/13 05:22:27;;;;;;;6.20;3.90;;;;;;;4.63;84.88;96492.17;115499;1199;31206;-90
2021/10/13 05:24:55;;;;;;;5.80;3.70;;;;;;;4.63;85.00;96502.64;115480;1199;32356;-90
2021/10/13 05:27:24;;;;;;;5.30;3.70;;;;;;;4.61;84.84;96504.82;115465;1198;28522;-89
2021/10/13 05:29:52;;;;;;;8.30;3.70;;;;;;;4.57;84.94;96501.58;115429;1199;29461;-90
2021/10/13 05:32:20;;;;;;;6.60;4.50;;;;;;;4.54;85.10;96509.84;115566;1198;29493;-90
2021/10/13 05:34:48;;;;;;;7.90;4.70;;;;;;;4.53;85.13;96508.98;115555;1192;28613;-89
2021/10/13 05:37:16;;;;;;;6.50;4.40;;;;;;;4.49;85.37;96513.16;115511;1192;28916;-89
2021/10/13 05:39:44;;;;;;;6.60;4.30;;;;;;;4.47;85.35;96511.45;115437;1192;29063;-89
2021/10/13 05:42:12;;;;;;;6.10;4.10;;;;;;;4.45;85.35;96514.16;115354;1199;29473;-89
2021/10/13 05:44:40;;;;;;;7.40;4.70;;;;;;;4.47;85.36;96510.19;115456;1199;30642;-90
2021/10/13 05:47:09;;;;;;;6.70;4.20;;;;;;;4.47;85.48;96521.06;115492;1198;27961;-90
2021/10/13 05:49:37;;;;;;;9.00;4.60;;;;;;;4.45;85.47;96519.82;115268;1193;29494;-90
2021/10/13 05:52:06;;;;;;;6.90;4.40;;;;;;;4.42;85.60;96522.41;115512;1198;29694;-89
2021/10/13 05:54:35;;;;;;;8.50;3.90;;;;;;;4.40;85.15;96535.92;115325;1199;31719;-90
2021/10/13 05:57:05;;;;;;;8.10;3.80;;;;;;;4.40;85.23;96540.19;115265;1199;29094;-89
2021/10/13 05:59:36;;;;;;;6.90;4.10;;;;;;;4.39;85.28;96538.85;115470;1198;28033;-89
2021/10/13 06:02:05;;;;;;;6.10;4.70;;;;;;;4.38;85.25;96544.00;115444;1192;28643;-89
2021/10/13 06:04:33;;;;;;;7.40;4.60;;;;;;;4.37;85.43;96547.21;115402;1199;28842;-89
2021/10/13 06:07:01;;;;;;;5.70;4.00;;;;;;;4.34;85.68;96555.46;115359;1184;27925;-89
2021/10/13 06:09:29;;;;;;;7.00;4.40;;;;;;;4.33;85.55;96557.60;115464;1199;32931;-89
2021/10/13 06:11:57;;;;;;;8.70;5.30;;;;;;;4.31;85.83;96561.14;115389;1198;29480;-90
2021/10/13 06:14:26;;;;;;;8.70;5.00;;;;;;;4.30;85.91;96565.17;115544;1198;27749;-89
2021/10/13 06:16:54;;;;;;;6.70;4.90;;;;;;;4.29;85.98;96566.41;115562;1198;25202;-89
2021/10/13 06:19:22;;;;;;;8.10;5.10;;;;;;;4.29;85.88;96574.48;115589;1198;28674;-89
2021/10/13 06:21:50;;;;;;;7.30;5.00;;;;;;;4.32;86.07;96581.63;115604;1199;28120;-89
2021/10/13 06:24:18;;;;;;;6.80;4.50;;;;;;;4.33;86.05;96587.15;115647;1193;28596;-89
2021/10/13 06:26:46;;;;;;;9.50;5.70;;;;;;;4.36;86.26;96591.77;115577;1192;29293;-90
2021/10/13 06:29:14;;;;;;;6.60;4.90;;;;;;;4.36;86.46;96595.52;115424;1193;29378;-89
2021/10/13 06:31:45;;;;;;;9.30;4.20;;;;;;;4.37;86.51;96604.95;115462;1199;45221;-89
2021/10/13 06:34:14;;;;;;;6.30;4.30;;;;;;;4.40;86.64;96610.52;115478;1199;28042;-89
2021/10/13 06:36:43;;;;;;;7.80;5.40;;;;;;;4.44;86.10;96614.83;115499;1192;26300;-89
2021/10/13 06:39:11;;;;;;;7.10;4.70;;;;;;;4.49;86.06;96619.88;115535;1198;28289;-88
2021/10/13 06:41:40;;;;;;;5.80;4.70;;;;;;;4.49;86.09;96622.83;115413;1199;28195;-89
2021/10/13 06:44:11;;;;;;;7.80;5.10;;;;;;;4.46;86.04;96630.93;115458;1199;28933;-89
2021/10/13 06:46:40;;;;;;;7.30;5.40;;;;;;;4.47;86.08;96634.14;115389;1199;28036;-89
2021/10/13 06:49:10;;;;;;;8.70;5.60;;;;;;;4.48;86.00;96632.69;115488;1192;34916;-90
2021/10/13 06:51:38;;;;;;;7.30;5.10;;;;;;;4.46;85.95;96640.17;115535;1192;29103;-89
2021/10/13 06:54:06;;;;;;;7.10;5.00;;;;;;;4.49;85.89;96641.52;115575;1198;27836;-89
2021/10/13 06:56:35;;;;;;;5.60;4.20;;;;;;;4.54;86.08;96650.34;115556;1198;27646;-89
2021/10/13 06:59:03;;;;;;;8.10;5.30;;;;;;;4.58;85.59;96650.13;115509;1194;27873;-89
2021/10/13 07:01:33;;;;;;;5.70;4.20;;;;;;;4.57;85.46;96657.30;115192;1199;27275;-89
2021/10/13 07:04:01;;;;;;;6.00;3.90;;;;;;;4.59;85.32;96662.89;115447;1193;30960;-90
2021/10/13 07:06:29;;;;;;;8.50;4.70;;;;;;;4.62;85.16;96658.00;115505;1198;43749;-89
2021/10/13 07:08:58;;;;;;;7.60;4.70;;;;;;;4.61;84.98;96665.55;115511;1199;32420;-89
2021/10/13 07:11:26;;;;;;;6.70;4.20;;;;;;;4.63;85.05;96665.53;115493;1192;30085;-89
2021/10/13 07:13:54;;;;;;;5.90;4.10;;;;;;;4.64;84.70;96670.44;115472;1193;27715;-90
2021/10/13 07:16:23;;;;;;;5.30;4.10;;;;;;;4.69;84.91;96670.62;115488;1193;28028;-89
2021/10/13 07:18:51;;;;;;;6.40;3.70;;;;;;;4.64;84.63;96675.69;115502;1198;29797;-90
2021/10/13 07:21:19;;;;;;;5.60;4.10;;;;;;;4.67;84.47;96679.52;115407;1199;28416;-89
2021/10/13 07:23:48;;;;;;;6.90;4.00;;;;;;;4.74;84.70;96679.61;115316;1198;28532;-89
2021/10/13 07:26:16;;;;;;;8.40;4.30;;;;;;;4.81;84.80;96677.59;115523;1198;28330;-88
2021/10/13 07:28:44;;;;;;;6.30;4.00;;;;;;;4.86;84.39;96681.75;115515;1192;29928;-87
2021/10/13 07:31:12;;;;;;;4.90;3.80;;;;;;;4.87;84.41;96683.29;115508;1199;44441;-90
2021/10/13 07:33:40;;;;;;;6.00;4.40;;;;;;;4.86;84.17;96683.39;115393;1199;30273;-88
2021/10/13 07:36:08;;;;;;;8.00;5.40;;;;;;;4.88;84.11;96684.45;115504;1192;28291;-89
2021/10/13 07:38:37;;;;;;;6.20;4.40;;;;;;;4.94;84.33;96687.86;115493;1199;30969;-88
2021/10/13 07:41:05;;;;;;;8.80;5.20;;;;;;;4.96;84.10;96684.59;115426;1199;31138;-88
2021/10/13 07:43:34;;;;;;;7.40;4.60;;;;;;;4.91;84.08;96687.86;115458;1193;29918;-89
2021/10/13 07:46:02;;;;;;;6.70;5.30;;;;;;;4.83;84.14;96685.18;115250;1197;28554;-89
2021/10/13 07:48:31;;;;;;;7.40;4.70;;;;;;;4.82;84.19;96688.05;115503;1199;32004;-89
2021/10/13 07:51:01;;;;;;;6.90;5.40;;;;;;;4.83;84.25;96684.30;115216;1200;30895;-89
2021/10/13 07:53:29;;;;;;;10.40;6.20;;;;;;;4.84;84.28;96681.46;115406;1192;27709;-89
2021/10/13 07:55:58;;;;;;;8.60;5.20;;;;;;;4.87;84.25;96677.30;115474;1199;30226;-88
2021/10/13 07:58:26;;;;;;;6.90;4.70;;;;;;;5.00;84.51;96680.98;115467;1199;33707;-88
2021/10/13 08:00:55;;;;;;;6.80;4.40;;;;;;;5.20;84.37;96680.98;115469;1198;27020;-89
2021/10/13 08:03:23;;;;;;;9.10;5.40;;;;;;;5.48;83.99;96677.94;115474;1198;30724;-89
2021/10/13 08:05:51;;;;;;;6.70;5.00;;;;;;;5.92;84.48;96678.11;115425;1198;40717;-89
2021/10/13 08:08:20;;;;;;;10.40;6.40;;;;;;;6.14;84.00;96677.67;115460;1199;30195;-88
2021/10/13 08:10:48;;;;;;;11.10;5.60;;;;;;;6.20;83.44;96673.48;115525;1199;26563;-89
2021/10/13 08:13:17;;;;;;;7.70;4.80;;;;;;;6.32;83.15;96672.70;115467;1184;27976;-89
2021/10/13 08:15:45;;;;;;;6.40;4.80;;;;;;;6.27;81.73;96678.97;115508;1198;26437;-89
2021/10/13 08:18:15;;;;;;;11.00;5.30;;;;;;;6.33;81.77;96682.65;115393;1199;29997;-88
2021/10/13 08:20:44;;;;;;;7.70;5.60;;;;;;;6.39;81.48;96686.77;115389;1192;27356;-88
2021/10/13 08:23:12;;;;;;;7.90;5.80;;;;;;;6.27;81.06;96686.08;115469;1198;29557;-88
2021/10/13 08:25:40;;;;;;;8.40;5.10;;;;;;;6.17;81.06;96684.50;115513;1192;28516;-89
2021/10/13 08:28:08;;;;;;;8.60;5.80;;;;;;;6.05;80.98;96686.05;115344;1193;27682;-89
2021/10/13 08:30:37;;;;;;;7.60;5.40;;;;;;;6.04;81.36;96688.24;115480;1199;30695;-89
2021/10/13 08:33:05;;;;;;;7.40;5.00;;;;;;;5.96;80.91;96688.27;115533;1198;28486;-89
2021/10/13 08:35:34;;;;;;;5.50;4.00;;;;;;;5.80;80.30;96692.05;115496;1198;28794;-89
2021/10/13 08:38:02;;;;;;;7.10;4.90;;;;;;;5.67;80.19;96694.75;115489;1176;28300;-88
2021/10/13 08:40:31;;;;;;;7.00;4.80;;;;;;;5.73;80.73;96694.88;115456;1199;26600;-89
2021/10/13 08:43:02;;;;;;;7.70;4.80;;;;;;;5.88;80.24;96696.75;115497;1199;26552;-89
2021/10/13 08:45:34;;;;;;;5.80;4.00;;;;;;;6.23;79.82;96692.77;115300;1193;28358;-89
2021/10/13 08:48:05;;;;;;;6.30;4.60;;;;;;;6.50;79.22;96691.57;115499;1192;27766;-89
2021/10/13 08:50:35;;;;;;;7.30;4.60;;;;;;;6.54;78.82;96688.33;115480;1192;27547;-89
2021/10/13 08:53:10;;;;;;;6.60;4.30;;;;;;;6.52;78.49;96692.75;115508;1198;27724;-89
2021/10/13 08:55:40;;;;;;;5.30;4.20;;;;;;;6.54;78.27;96692.91;115541;1192;39388;-89
2021/10/13 08:58:13;;;;;;;6.60;4.10;;;;;;;6.41;77.43;96690.05;115562;1199;27113;-89
2021/10/13 09:00:44;;;;;;;5.20;3.10;;;;;;;6.43;78.33;96697.77;115539;1192;34639;-89
2021/10/13 09:03:27;;;;;;;5.70;3.70;;;;;;;6.69;78.01;96702.89;115464;1199;30321;-89
2021/10/13 09:05:56;;;;;;;5.90;3.60;;;;;;;6.78;76.51;96704.50;115451;1193;28151;-87
2021/10/13 09:08:25;;;;;;;6.20;4.10;;;;;;;6.58;75.45;96703.44;115518;1198;26294;-87
2021/10/13 09:10:56;;;;;;;7.10;3.70;;;;;;;6.38;75.89;96708.56;115405;1199;27073;-85
2021/10/13 09:13:25;;;;;;;5.10;3.50;;;;;;;6.16;75.57;96711.76;115429;1199;31108;-88
2021/10/13 09:15:57;;;;;;;4.70;3.60;;;;;;;5.95;75.35;96714.83;115418;1199;28343;-89
2021/10/13 09:18:26;;;;;;;5.80;3.80;;;;;;;5.80;75.91;96716.65;115391;1199;31248;-87
2021/10/13 09:20:56;;;;;;;7.30;4.10;;;;;;;5.75;76.39;96718.30;115401;1192;29629;-87
2021/10/13 09:23:29;;;;;;;7.40;4.50;;;;;;;5.84;77.21;96717.58;115432;1199;28502;-87
2021/10/13 09:26:06;;;;;;;6.10;3.80;;;;;;;5.97;77.86;96720.19;115377;1199;29801;-88
2021/10/13 09:28:36;;;;;;;4.80;3.50;;;;;;;6.09;77.82;96721.42;115485;1199;28816;-88
2021/10/13 09:31:17;;;;;;;5.00;4.10;;;;;;;6.13;77.48;96720.46;115465;1199;30053;-89
2021/10/13 09:33:56;;;;;;;7.60;4.60;;;;;;;6.21;77.56;96724.40;115373;1193;36376;-89
2021/10/13 09:36:33;;;;;;;4.60;3.60;;;;;;;6.30;77.56;96730.05;115395;1193;25905;-89
2021/10/13 09:39:07;;;;;;;6.20;4.30;;;;;;;6.42;77.49;96733.61;115498;1199;27920;-88
2021/10/13 09:42:00;;;;;;;6.50;3.90;;;;;;;6.49;76.48;96733.91;115393;1199;31072;-88
2021/10/13 09:44:31;;;;;;;7.50;3.40;;;;;;;6.57;76.76;96734.86;115458;1199;29935;-87
2021/10/13 09:47:01;;;;;;;6.20;4.10;;;;;;;6.68;76.48;96738.66;115429;1199;32464;-88
2021/10/13 09:49:32;;;;;;;5.70;4.30;;;;;;;6.71;76.11;96735.63;115271;1200;28719;-88
2021/10/13 09:52:04;;;;;;;6.00;3.50;;;;;;;6.71;75.82;96735.05;115356;1199;29673;-88
2021/10/13 09:54:33;;;;;;;6.10;4.10;;;;;;;6.73;75.77;96737.02;115434;1193;28488;-87
2021/10/13 09:57:15;;;;;;;7.40;4.40;;;;;;;6.63;75.34;96736.23;115426;1199;27891;-88
2021/10/13 09:59:57;;;;;;;6.30;4.40;;;;;;;6.49;75.54;96748.23;115108;1200;29142;-89
2021/10/13 10:02:30;;;;;;;5.00;3.10;;;;;;;6.41;75.49;96746.14;115429;1192;29432;-88
2021/10/13 10:05:02;;;;;;;3.60;2.50;;;;;;;6.41;75.72;96745.93;115303;1200;31624;-89
2021/10/13 10:07:31;;;;;;;4.40;3.50;;;;;;;6.46;75.73;96747.65;115520;1198;29509;-88
2021/10/13 10:10:11;;;;;;;5.80;3.90;;;;;;;6.49;75.56;96746.92;115500;1192;30138;-88
2021/10/13 10:13:13;;;;;;;;;;;;;;;6.48;75.18;96750.80;115510;1199;29277;-88
2021/10/13 10:15:46;;;;;;;5.10;3.40;;;;;;;6.47;75.01;96752.00;115517;1198;25981;-88
2021/10/13 10:18:31;;;;;;;5.20;3.60;;;;;;;6.43;75.15;96751.27;115443;1192;28971;-89
2021/10/13 10:21:18;;;;;;;6.40;3.40;;;;;;;6.44;75.22;96751.91;115483;1198;32218;-89
2021/10/13 10:23:48;;;;;;;5.70;3.50;;;;;;;6.36;75.08;96748.14;115356;1199;28850;-87
2021/10/13 10:26:36;;;;;;;4.40;3.20;;;;;;;6.37;75.38;96752.95;115391;1199;31691;-87
2021/10/13 10:29:13;;;;;;;6.80;3.90;;;;;;;6.45;75.21;96753.08;115487;1198;28228;-88
2021/10/13 10:31:54;;;;;;;7.10;4.30;;;;;;;6.52;74.88;96751.73;115469;1198;27300;-89
2021/10/13 10:34:25;;;;;;;4.60;3.50;;;;;;;6.47;74.52;96755.73;115523;1199;27925;-88
2021/10/13 10:37:15;;;;;;;5.60;3.50;;;;;;;6.61;75.21;96755.14;115493;1198;29174;-87
2021/10/13 10:40:14;;;;;;;4.90;4.00;;;;;;;6.79;75.36;96752.30;115461;1198;29735;-88
2021/10/13 10:43:04;;;;;;;4.60;3.40;;;;;;;6.85;74.84;96754.73;115425;1199;26834;-88
2021/10/13 10:45:36;;;;;;;4.40;3.10;;;;;;;6.86;74.38;96757.73;115379;1199;31930;-88
2021/10/13 10:48:15;;;;;;;6.60;4.30;;;;;;;6.79;74.39;96760.48;115466;1192;28507;-88
2021/10/13 10:51:08;;;;;;;3.80;3.40;;;;;;;6.79;75.03;96755.31;115453;1199;29641;-88
2021/10/13 10:53:43;;;;;;;5.40;3.30;;;;;;;6.87;74.93;96752.15;115428;1199;28091;-88
2021/10/13 10:56:25;;;;;;;4.40;3.20;;;;;;;6.93;74.48;96755.59;115405;1199;29187;-88
2021/10/13 10:59:15;;;;;;;6.20;3.50;;;;;;;6.95;73.91;96753.80;115404;1199;26753;-86
2021/10/13 11:02:08;;;;;;;6.70;4.10;;;;;;;6.94;73.72;96753.23;115377;1199;29547;-87
2021/10/13 11:04:37;;;;;;;9.30;4.60;;;;;;;6.85;73.46;96751.08;115426;1199;29038;-88
2021/10/13 11:07:18;;;;;;;8.70;5.20;;;;;;;6.85;73.97;96749.83;115423;1192;33478;-88
2021/10/13 11:09:46;;;;;;;7.90;4.60;;;;;;;6.89;74.15;96750.75;115356;1199;31541;-88
2021/10/13 11:12:14;;;;;;;7.20;5.00;;;;;;;6.89;74.08;96757.43;115428;1198;34817;-88
2021/10/13 11:14:43;;;;;;;6.40;4.20;;;;;;;6.84;74.14;96757.19;115365;1199;29846;-88
2021/10/13 11:17:11;;;;;;;6.60;4.50;;;;;;;6.82;74.08;96760.08;115379;1199;29924;-88
2021/10/13 11:19:43;;;;;;;8.50;6.00;;;;;;;6.90;74.64;96761.83;115332;1194;28055;-88
2021/10/13 11:22:12;;;;;;;8.10;5.50;;;;;;;6.98;74.47;96762.05;115350;1199;30268;-88
2021/10/13 11:24:47;;;;;;;7.10;4.80;;;;;;;6.85;73.88;96763.80;115366;1199;27444;-87
2021/10/13 11:27:24;;;;;;;6.50;4.40;;;;;;;6.66;73.64;96765.25;115427;1192;29064;-87
2021/10/13 11:29:52;;;;;;;5.20;3.80;;;;;;;6.44;73.90;96760.18;115379;1200;27521;-88
2021/10/13 11:32:23;;;;;;;5.80;3.80;;;;;;;6.24;74.27;96757.38;115446;1199;28116;-87
2021/10/13 11:34:58;;;;;;;;;;;;;;;6.06;74.40;96768.92;115496;1199;29195;-87
2021/10/13 11:37:27;;;;;;;3.40;2.60;;;;;;;6.04;75.03;96776.31;115425;1199;29906;-87
2021/10/13 11:39:57;;;;;;;2.40;1.30;;;;;;;6.15;74.95;96774.66;115438;1199;29177;-88
2021/10/13 11:42:26;;;;;;;;;;;;;;;6.25;74.53;96775.93;115449;1199;33181;-88
2021/10/13 11:44:56;;;;;;;5.30;2.90;;;;;;;6.33;74.70;96772.65;115389;1199;30532;-86
2021/10/13 11:47:33;;;;;;;4.80;2.10;;;;;;;6.44;74.80;96769.91;115422;1199;28906;-88
2021/10/13 11:50:05;;;;;;;4.10;2.70;;;;;;;6.44;74.29;96766.40;115442;1199;32613;-88
2021/10/13 11:52:35;;;;;;;4.80;2.80;;;;;;;6.47;74.51;96761.05;115377;1199;26440;-87